Michel Dsr — FLTE — position and weather

sailwx.info

Track history (hours):
 
Tides and Currents Weather Stations Pressure Air Temp Water Temp Dewpoint Dewpoint Depression Visibility Wind Speed Wind Dir Waves Ship Positions

Michel Dsr

Last reported at 2014-Nov-21 15:33 UTC. Time now 2014-Nov-24 01:29 UTC.
Position N 47°16' W 002°12'.

Length 80 m; draft 5.9 m.

Type: Dredging. MMSI: 228344700.

Date/timePositionNaut miles runAvg speedWind from/ knotsBaromVisibWave heightAir tempDewpointWater temp
2014-Nov-21 15:33N 47°16' W 002°12'0 0.0
2014-Nov-21 07:23N 47°16' W 002°12'4 0.2
2014-Nov-20 07:28N 47°18' W 002°07'0 0.1
2014-Nov-20 06:33N 47°18' W 002°07'0 0.0
2014-Nov-20 05:32N 47°18' W 002°07'0 0.0
2014-Nov-20 04:32N 47°18' W 002°07'0 0.0
2014-Nov-20 03:32N 47°18' W 002°07'0 0.0
2014-Nov-20 02:25N 47°18' W 002°07'  
2014-Nov-12 15:29N 46°40' W 002°10'910.0
2014-Nov-12 14:33N 46°32' W 002°02'1010.1
2014-Nov-12 13:33N 46°24' W 001°54'1010.2
2014-Nov-12 12:33N 46°15' W 001°46'1010.1
2014-Nov-12 11:33N 46°07' W 001°37'3 3.2
2014-Nov-12 10:33N 46°05' W 001°34'0 0.0
2014-Nov-12 09:33N 46°05' W 001°34'0 0.4
2014-Nov-12 08:33N 46°05' W 001°35'5 4.9
2014-Nov-12 07:33N 46°05' W 001°28'9 8.6
2014-Nov-12 06:34N 46°04' W 001°15'2 1.6
2014-Nov-12 05:33N 46°03' W 001°13'0 0.0
2014-Nov-12 04:34N 46°03' W 001°13'0 0.0
2014-Nov-12 03:34N 46°03' W 001°13'0 0.0
2014-Nov-12 02:33N 46°03' W 001°13'0 0.0
2014-Nov-12 01:34N 46°03' W 001°13'0 0.1
2014-Nov-12 00:32N 46°03' W 001°13'0 0.0
2014-Nov-11 23:34N 46°03' W 001°13'0 0.0
2014-Nov-11 22:33N 46°03' W 001°13'0 0.0
2014-Nov-11 21:33N 46°03' W 001°13'0 0.0
2014-Nov-11 20:31N 46°03' W 001°13'0 0.0
2014-Nov-11 19:34N 46°03' W 001°13'0 0.0
2014-Nov-11 18:34N 46°03' W 001°13'0 0.0
2014-Nov-11 17:34N 46°03' W 001°13'5 5.2
2014-Nov-11 16:33N 46°05' W 001°20'1211.7
2014-Nov-11 15:33N 46°08' W 001°37'  
Track history (hours):
 
Tides and Currents Weather Stations Pressure Air Temp Water Temp Dewpoint Dewpoint Depression Visibility Wind Speed Wind Dir Waves Ship Positions

Michel Dsr

Last reported at 2014-Nov-21 15:33 UTC. Time now 2014-Nov-24 01:29 UTC.
Position N 47°16' W 002°12'.

Length 80 m; draft 5.9 m.

Type: Dredging. MMSI: 228344700.

Date/timePositionNaut miles runAvg speedWind from/ knotsBaromVisibWave heightAir tempDewpointWater temp
2014-Nov-21 15:33N 47°16' W 002°12'0 0.0
2014-Nov-21 07:23N 47°16' W 002°12'4 0.2
2014-Nov-20 07:28N 47°18' W 002°07'0 0.1
2014-Nov-20 06:33N 47°18' W 002°07'0 0.0
2014-Nov-20 05:32N 47°18' W 002°07'0 0.0
2014-Nov-20 04:32N 47°18' W 002°07'0 0.0
2014-Nov-20 03:32N 47°18' W 002°07'0 0.0
2014-Nov-20 02:25N 47°18' W 002°07'  
2014-Nov-12 15:29N 46°40' W 002°10'910.0
2014-Nov-12 14:33N 46°32' W 002°02'1010.1
2014-Nov-12 13:33N 46°24' W 001°54'1010.2
2014-Nov-12 12:33N 46°15' W 001°46'1010.1
2014-Nov-12 11:33N 46°07' W 001°37'3 3.2
2014-Nov-12 10:33N 46°05' W 001°34'0 0.0
2014-Nov-12 09:33N 46°05' W 001°34'0 0.4
2014-Nov-12 08:33N 46°05' W 001°35'5 4.9
2014-Nov-12 07:33N 46°05' W 001°28'9 8.6
2014-Nov-12 06:34N 46°04' W 001°15'2 1.6
2014-Nov-12 05:33N 46°03' W 001°13'0 0.0
2014-Nov-12 04:34N 46°03' W 001°13'0 0.0
2014-Nov-12 03:34N 46°03' W 001°13'0 0.0
2014-Nov-12 02:33N 46°03' W 001°13'0 0.0
2014-Nov-12 01:34N 46°03' W 001°13'0 0.1
2014-Nov-12 00:32N 46°03' W 001°13'0 0.0
2014-Nov-11 23:34N 46°03' W 001°13'0 0.0
2014-Nov-11 22:33N 46°03' W 001°13'0 0.0
2014-Nov-11 21:33N 46°03' W 001°13'0 0.0
2014-Nov-11 20:31N 46°03' W 001°13'0 0.0
2014-Nov-11 19:34N 46°03' W 001°13'0 0.0
2014-Nov-11 18:34N 46°03' W 001°13'0 0.0
2014-Nov-11 17:34N 46°03' W 001°13'5 5.2
2014-Nov-11 16:33N 46°05' W 001°20'1211.7
2014-Nov-11 15:33N 46°08' W 001°37'  

Dump ship's entire track history